Mingo, Mississippi
Current Conditions -  °F | °C
As of 6:15 PM on Friday 24 Oct 2014 (Local Time) from KCRX Reporting Station
Clear Clear  
Wind Chill: 64°   Ceiling: Unl
Heat Index: 64°   Visibility: 9mi
Dew Point: 54°   Wind: 5mph
Humidity: 68%   Direction: 290°WNW
Pressure: 30.07"   Gusts: NA
Location:  34.6475°N, 88.2106°W
Report Text: KCRX 242315Z AUTO 29004KT 9SM CLR 18/12 A3007 RMK AO2
Loading
Personal Weather Stations






























Interactive Weather Map
Tropical Storm Tracking
New forecast layout! Learn more

10-Day Weather Forecast

Advertisements
Track Severe Weather on mobile